Ride Results

St Albans (19-06-2005)
Ride distance: 80.0 km

Outcomes - St Albans (19-06-2005)
Division No. of Entries Retired / DNE Completed Withdrawn Ineligible V/O Percentage Completed
HW 15 - 10 - - 5 66.67%
MW 49 - 33 3 - 13 67.35%
LW 25 - 22 2 - 1 88.00%
JN 11 - 9 - - 2 81.82%
Totals 100 - 74 5 - 21 74.00%
Results - St Albans (19-06-2005)
No. Rider Horse Place Time Leg Speeds Total
Km/Hr
H/R bpm
Heavyweight
88 Des Roots Aboo 1 (BC) 5:06:00 15.8, 15.3 15.69 28, 37, 38 (Avg:37)
98 Michael Boland Tarkhim Shar Sheikara 2 5:48:00 15.3, 11.7 13.79 26, 34, 42 (Avg:38)
92 Neil Clarkson Espirit Sherwood 3 6:17:00 13.2, 11.9 12.73 25, 42, 46 (Avg:44)
87 Peter Norman Bellarine Pasha 3 6:17:00 13.9, 11.1 12.73 39, 37, 46 (Avg:41)
97 Rod Mitchell Aloha Naja 5 6:19:00 12.9, 12.1 12.66 31, 38, 40 (Avg:39)
95 Rex Cox Dakila Renoasette 6 6:42:00 12.7, 10.8 11.94 34, 42, 47 (Avg:44)
99 Raymond Smith Salah Key Largo 7 7:04:00 11.4, 11.1 11.32 41, 50, 54 (Avg:52)
89 Alan Mackinder Bartavia 8 7:56:00 10.7, 9.1 10.08 29, 39, 40 (Avg:39)
93 Haydn Fisher Kalim 9 8:04:00 10.3, 9.2 9.92 25, 38, 50 (Avg:44)
86 Wayne Caslick Cas Red Valentine Rose 10 8:27:00 9.6, 9.1 9.47 43, 48, 48 (Avg:48)
90 Brodie Freeman Cedar Ridge Fire N Gold Lame L2 0:00:00 21.4, 16.9 - 32, 44, 43 (Avg:43)
91 Brad Jones Bey Espirit Lame L2 0:00:00 10.5, 9.1 - 41, 44, 45 (Avg:44)
94 Mark Brown Tallow Wood Kings Bounty Lame L1 0:00:00 16.9 - 34, 43 (Avg:43)
100 Rene Karrer Cherrytree Dominica Lame L1 0:00:00 16.3 - 30, 34 (Avg:34)
96 Thomas Hermann TTH Headliner Lame P/R 0:00:00 - - 36
Middleweight
25 Le-Gendre Katrivessis Injana Shamali 1 (BC) 4:07:00 20.8, 17.4 19.43 34, 39, 43 (Avg:41)
42 Tony Norman Valinor Park Moonshadow 2 4:59:00 16.8, 14.8 16.05 34, 40, 44 (Avg:42)
18 Jennifer Gilbertson Kurrajong Shadad 3 5:00:00 16.2, 15.6 16.00 42, 42, 43 (Avg:42)
2 Brian Norton Gusunder 4 5:32:00 15.3, 13.1 14.46 32, 36, 40 (Avg:38)
27 Kristie Taprell Castlebar Blue Chip 5 5:48:00 13.0, 15.2 13.79 32, 38, 41 (Avg:39)
28 Meg Wade Castlebar Macleod 5 5:48:00 13.0, 15.2 13.79 30, 35, 38 (Avg:36)
24 Con Katrivessis Marcon Mia 7 5:51:00 13.7, 13.5 13.68 31, 37, 43 (Avg:40)
16 Peter Strickland Emir De Sombre 7 5:51:00 13.5, 13.8 13.68 29, 37, 42 (Avg:39)
22 Marita Rifai Premium 9 5:58:00 14.4, 11.9 13.41 33, 42, 42 (Avg:42)
9 Peter Kelly Wollumbin Faiz 10 6:02:00 13.7, 12.4 13.26 34, 38, 42 (Avg:40)
8 Susan Pritchard Cherox Aldaniti 11 6:03:00 13.1, 13.3 13.22 32, 38, 41 (Avg:39)
44 Geoff Hurt Kejome Komet 12 6:04:00 14.2, 11.7 13.19 30, 40, 44 (Avg:42)
15 Daphne Phillips Bachelor Boy 13 6:07:00 13.1, 12.9 13.08 35, 42, 49 (Avg:45)
41 Peter Brown Heste Arabique Waterloo 14 6:18:00 13.2, 11.8 12.70 42, 49, 51 (Avg:50)
40 Stephanie Grolimund Aloha Vikara 14 6:18:00 13.2, 11.8 12.70 30, 38, 46 (Avg:42)
11 Gillian Peirce Chip Chase Kasino 16 6:22:00 13.1, 11.7 12.57 30, 33, 47 (Avg:40)
23 Joanna Holt Rowallan Ramada 17 6:33:00 13.4, 10.5 12.21 30, 42, 50 (Avg:46)
1 Renee Kirk Cherox Assassin 17 6:33:00 13.4, 10.5 12.21 47, 46, 48 (Avg:47)
39 Margaret Shore Arnie 19 6:50:00 13.1, 9.9 11.71 29, 43, 40 (Avg:41)
32 Brodie Ashman Alhambra Ice Dancer 20 6:51:00 12.9, 10.0 11.68 31, 36, 40 (Avg:38)
35 Graham Appleton Ennerdale Otto 21 6:54:00 11.6, 11.5 11.59 36, 42, 44 (Avg:43)
33 Rosemary Scott Misty Morning 22 7:03:00 11.4, 11.1 11.35 32, 38, 44 (Avg:41)
20 Deidre Wilcock Aussie Oy 23 7:04:00 11.6, 10.7 11.32 38, 46, 52 (Avg:49)
38 Annette Truman El Shataan Adu Baba 24 7:36:00 11.0, 9.7 10.53 34, 41, 52 (Avg:46)
43 Steven Roberts Bendy Creek Arrival 25 7:45:00 10.7, 9.6 10.32 44, 41, 44 (Avg:42)
49 Stuart Hitchcock Farras 26 7:48:00 10.4, 9.9 10.26 36, 49, 53 (Avg:51)
4 Bruce Carter Dasharm Zayesha 27 7:57:00 11.9, 7.9 10.06 32, 48, 47 (Avg:47)
7 Kerry Walker Danjera Barassi 27 7:57:00 11.9, 7.9 10.06 33, 40, 46 (Avg:43)
21 Gail Fisher A'Landell Lace 29 8:04:00 10.3, 9.2 9.92 32, 44, 44 (Avg:44)
3 Sue Gerrard Salamay Hazel Zarah 30 8:07:00 11.9, 7.5 9.86 35, 45, 50 (Avg:47)
46 Narelle Walkom Elle Espirit 31 8:11:00 10.3, 8.9 9.78 34, 36, 39 (Avg:37)
34 Darryl King Wimsey Joshua 32 8:19:00 10.1, 8.8 9.62 36, 40, 43 (Avg:41)
14 Amanda Allen Leechdale Prince Shazzam 33 8:49:00 10.1, 7.6 9.07 37, 40, 45 (Avg:42)
19 Jacky Barlow Shahaven Cobbity Mist Lame L2 0:00:00 15.5, 10.7 - 38, 40, 43 (Avg:41)
45 Mark Harvey Judstan Sharwayn Lame L2 0:00:00 20.4, 15.7 - 36, 50, 50 (Avg:50)
26 Samantha Luck Allyndah Expectation Lame L2 0:00:00 11.4, 11.1 - 32, 43, 50 (Avg:46)
10 Margaret Boland A'Landell Karlinta Withdrawn L1 0:00:00 - - 36, 49 (Avg:49)
48 April Bonham Joda Shantilly Withdrawn L1 0:00:00 - - 38, 48 (Avg:48)
29 Pauline Brewer Dandaloo Shamaan Lame L1 0:00:00 22.0 - 34, 36 (Avg:36)
12 Kim Corliss Miss Malara Cindaberry Lame L1 0:00:00 10.1 - 32, 43 (Avg:43)
5 Tracy Haack Bandeisha Lame L1 0:00:00 11.4 - 35, 42 (Avg:42)
37 Howard Harris Harmere Platinum Domino Lame L1 0:00:00 23.2 - 39, 48 (Avg:48)
6 Gaye Kerr Stilton Farm Portia Lame L1 0:00:00 11.4 - 37, 41 (Avg:41)
17 Carol Major Major Luke Lame L1 0:00:00 13.5 - 43, 40 (Avg:40)
31 Sharon Oliver Vudu Flyte Lame L1 0:00:00 33.3 - 39, 40 (Avg:40)
36 Claudia Reid Ningadoo Envy Lame L1 0:00:00 11.8 - 36, 40 (Avg:40)
13 Duncan Satchell Peppermint Springs Ladino Lame L1 0:00:00 18.8 - 35, 48 (Avg:48)
47 Kevin Walton El Jannah Ala Lame L1 0:00:00 13.6 - 38, 46 (Avg:46)
30 Chris Noonan Bondura Jackpot Withdrawn P/R 0:00:00 - - 29
Lightweight
65 Shelly Ison Topaz Cruiser 1 4:59:00 16.8, 14.8 16.05 40, 42, 49 (Avg:45)
50 Sue Todd Shakista 2 (BC) 5:32:00 15.5, 12.9 14.46 40, 51, 50 (Avg:50)
57 Robin Gossip Wesswood Willow 3 5:43:00 14.0, 13.8 13.99 32, 37, 42 (Avg:39)
52 Sue McLaughlin Revelwood Shaja 4 5:44:00 14.4, 13.1 13.95 38, 47, 44 (Avg:45)
72 Julie Scruse Danjera Kadhir 5 5:56:00 13.7, 13.0 13.48 33, 40, 45 (Avg:42)
54 Dianne Luker Razorback Phoenix 6 6:02:00 13.7, 12.4 13.26 40, 42, 49 (Avg:45)
68 Janet Hurt Bern 7 6:04:00 14.2, 11.7 13.19 32, 40, 40 (Avg:40)
70 Donna Jennings Bluegum Majestic 8 6:11:00 13.5, 12.0 12.94 44, 48, 51 (Avg:49)
61 Lyndell McGowan Faym El Kadet 9 6:52:00 12.9, 9.9 11.65 36, 40, 53 (Avg:46)
67 Shan Symons Torryburn Nafisa 10 6:54:00 11.8, 11.1 11.59 34, 44, 44 (Avg:44)
59 Fiona Groth Pancho 11 7:13:00 11.3, 10.6 11.09 36, 43, 56 (Avg:49)
60 Kate Pilley Stretch 11 7:13:00 11.3, 10.6 11.09 33, 55, 53 (Avg:54)
62 Jodi Dewick Shawli Prince Bagheera 13 7:27:00 15.3, 7.1 10.74 39, 51, 55 (Avg:53)
63 Camille Alexander Greengrove Odessa 14 7:36:00 11.0, 9.7 10.53 35, 36, 37 (Avg:36)
75 Pam Markham Junack Octavia 15 7:37:00 11.6, 9.0 10.50 36, 44, 55 (Avg:49)
69 Jenny Vandervelden Yoffie 15 7:37:00 11.6, 9.0 10.50 38, 46, 53 (Avg:49)
66 Kate Bolas Cathbery Abariq 17 7:45:00 10.7, 9.6 10.32 34, 40, 42 (Avg:41)
64 Petrina Besedic Kintamani Charisma 18 7:56:00 10.7, 9.1 10.08 32, 44, 44 (Avg:44)
71 Fia Hasko-Stewart Blake's Heaven Dubonnet 19 8:22:00 10.5, 8.2 9.56 34, 42, 44 (Avg:43)
74 Kylie Anthony Grelisa Park Semawi Shaklan 20 8:27:00 9.6, 9.1 9.47 44, 41, 50 (Avg:45)
73 Denise Moseley A-Landell Major Jepardy 20 8:27:00 9.6, 9.1 9.47 29, 31, 34 (Avg:32)
55 Lynette Elfick Ankhesenpaaten Neferu 22 8:35:00 10.3, 8.0 9.32 34, 42, 44 (Avg:43)
56 Melanie Anderson Markus Zen Galaxy Lame L2 0:00:00 15.5, 12.9 - 37, 44, 44 (Avg:44)
51 Rebecca Hogan Rowallan Sonic Withdrawn L1 0:00:00 - - 32, 42 (Avg:42)
53 Brad Dillon Ebonglen Holmegaard Withdrawn P/R 0:00:00 - - 32
Junior
76 Allix Jones Shellal Cattle King Flyte 1 4:42:00 17.2, 16.6 17.02 41, 44, 46 (Avg:45)
80 Hannah Legge Harley 2 (BC) 4:59:00 16.8, 14.8 16.05 30, 38, 38 (Avg:38)
81 Hannah Norman Valinor Park Opal 2 4:59:00 16.8, 14.8 16.05 40, 47, 44 (Avg:45)
79 Zoe Locke Rhiannon''s Dakota 4 5:36:00 15.4, 12.6 14.29 29, 38, 40 (Avg:39)
78 Brooke Warner Rhiannons Nimbi 4 5:36:00 15.4, 12.6 14.29 35, 45, 46 (Avg:45)
82 Kendra Appleton Creewah La Bruja 6 6:54:00 11.6, 11.5 11.59 34, 37, 44 (Avg:40)
84 Talea Hasko-Stewart Blake's Heaven Ventura 7 7:33:00 11.7, 9.0 10.60 31, 40, 42 (Avg:41)
85 Lorien Hasko-Stewart Wantley Kaliph 7 7:33:00 11.7, 9.0 10.60 29, 36, 47 (Avg:41)
77 Shelley Jones Nioka Park Sorceress 9 8:00:00 10.5, 9.1 10.00 36, 46, 48 (Avg:47)
58 Thea Van Veen Blake's Heaven Charades Lame L2 0:00:00 10.5, 9.2 - 30, 44, 53 (Avg:48)
83 Brianna Webb Ashbrook Ellegance Lame L1 0:00:00 11.6 - 34, 38 (Avg:38)